Huvudsida
METAR-TAF:

METAR-TAF

Flygplatser :

Newquay Cornwall Airport

Newquay Cornwall, England

latitud: 50-26N, longitud: 005-00W, höjd: 119 m

Aktuellt väderrapport

Denna rapport gjordes för 16 minuter sedan, klockan 16:20 UTC
Vind 16 kt från nord/nordost
Temperatur 8°C
Fuktighet 42%
Tryck 1039 hPa
Sikt 10 km eller mer
Få moln på en höjd av 4800 ft

METAR: EGHQ 291620Z 03016KT 9999 FEW048 08/M04 Q1039

Tid: 17:36 (16:36 UTC)

Väderprognos

Denna rapport gjordes för 2 timmar och 41 minuter sedan, klockan 13:55 UTC
Prognos gäller från 29 kl. 15 UTC till 29 kl. 24 UTC
Vind 15 kt från nordost
Sikt 10 km eller mer
Få moln på en höjd av 4500 ft
Temporärt
från 29 kl. 15 UTC till 29 kl. 19 UTC
Vind 18 kt från nordost i byarna ända upp till 28 kt

TAF: EGHQ 291355Z 2915/2924 04015KT 9999 FEW045 TEMPO 2915/2919 05018G28KT

Aktuella väderrapporter och prognoser från 4000 flygplatser (METAR- och TAF-rapporter).

De tillgängliga stationerna syns som gula och röda prickar på kartan.

För musen över prickarna för att se namnen på stationerna.

Klicka sedan för att få väderrapporter och prognoser.

För att ändra kartan: Klicka på de gröna knapparna med ett svart kors på för att zooma in; den gröna knappen med ett streck på för att zooma ut; eller på de gröna pilarna för angränsande kartor.


METAR-TAF: